Lagrange, Wyoming
Current Conditions -  °F | °C
As of 9:55 AM on Monday 22 Dec 2014 (Local Time) from K82V Reporting Station
Overcast Overcast  
Wind Chill: -5°   Ceiling: 9000
Heat Index:   Visibility: 10mi
Dew Point: -3°   Wind: 13mph
Humidity: 80%   Direction: 290°WNW
Pressure: 29.7"   Gusts: 21mph
Location:  41.63°N, 104.35°W
Report Text: K82V 221655Z AUTO 29011G18KT 10SM BKN090 OVC110 00/M03 A2970 RMK AO2
Loading
Personal Weather Stations






























Interactive Weather Map New forecast layout! Learn more

10-Day Weather Forecast

Advertisements
Track Severe Weather on mobile